createdAt,value
2023-01-11T00:01:08.532Z,22.73
2023-01-11T00:03:35.719Z,25.48
2023-01-11T00:06:03.016Z,26.63
2023-01-11T00:08:30.037Z,27.75
2023-01-11T00:10:57.423Z,28.38
2023-01-11T00:13:24.509Z,25.75
2023-01-11T00:15:51.773Z,26.85
2023-01-11T00:18:18.743Z,28.45
2023-01-11T00:20:45.976Z,29.17
2023-01-11T00:23:12.946Z,31.33
2023-01-11T00:25:40.548Z,29.67
2023-01-11T00:28:07.510Z,30.27
2023-01-11T00:30:35.903Z,28.63
2023-01-11T00:33:02.854Z,31.00
2023-01-11T00:35:32.250Z,30.10
2023-01-11T00:37:59.458Z,31.42
2023-01-11T00:40:27.175Z,32.10
2023-01-11T00:43:12.601Z,32.22
2023-01-11T00:45:59.757Z,28.95
2023-01-11T00:48:26.726Z,31.10
2023-01-11T00:50:55.576Z,29.33
2023-01-11T00:53:22.765Z,29.85
2023-01-11T00:55:49.970Z,29.63
2023-01-11T00:58:16.893Z,29.50
2023-01-11T01:00:44.119Z,32.28
2023-01-11T01:03:11.101Z,34.80
2023-01-11T01:05:39.119Z,30.10
2023-01-11T01:08:06.523Z,29.05
2023-01-11T01:10:33.715Z,28.67
2023-01-11T01:13:19.462Z,29.10
2023-01-11T01:15:46.807Z,30.98
2023-01-11T01:18:13.833Z,26.88
2023-01-11T01:20:41.040Z,28.13
2023-01-11T01:23:07.882Z,28.02
2023-01-11T01:25:37.156Z,26.92
2023-01-11T01:28:04.279Z,27.35
2023-01-11T01:30:31.580Z,28.80
2023-01-11T01:32:58.441Z,30.83
2023-01-11T01:35:25.669Z,28.90
2023-01-11T01:37:52.545Z,29.10
2023-01-11T01:40:19.929Z,29.08
2023-01-11T01:42:46.853Z,27.92
2023-01-11T01:45:32.169Z,26.52
2023-01-11T01:48:03.350Z,23.20
2023-01-11T01:50:37.542Z,26.27
2023-01-11T01:53:11.211Z,27.35
2023-01-11T01:55:41.490Z,25.30
2023-01-11T01:58:14.039Z,25.30
2023-01-11T02:00:43.909Z,25.80
2023-01-11T02:03:16.197Z,24.52
2023-01-11T02:05:43.395Z,26.73
2023-01-11T02:08:19.258Z,25.23
2023-01-11T02:10:46.995Z,24.85
2023-01-11T02:13:14.576Z,26.17
2023-01-11T02:15:41.856Z,26.40
2023-01-11T02:18:13.935Z,24.02
2023-01-11T02:20:59.725Z,25.48
2023-01-11T02:23:58.162Z,26.88
2023-01-11T02:27:00.562Z,26.10
2023-01-11T02:29:45.726Z,25.60
2023-01-11T02:32:44.977Z,24.85
2023-01-11T02:35:46.721Z,26.55
2023-01-11T02:38:28.219Z,27.08
2023-01-11T02:41:14.069Z,28.75
2023-01-11T02:44:16.341Z,25.92
2023-01-11T02:46:54.557Z,26.30
2023-01-11T02:49:35.506Z,28.30
2023-01-11T02:52:29.220Z,28.80
2023-01-11T02:54:59.109Z,27.83
2023-01-11T02:57:29.445Z,29.73
2023-01-11T02:59:58.084Z,28.50
2023-01-11T03:02:25.748Z,32.90
2023-01-11T03:04:52.793Z,30.35
2023-01-11T03:07:43.671Z,32.47
2023-01-11T03:10:42.468Z,31.70
2023-01-11T03:13:27.956Z,27.23
2023-01-11T03:16:20.328Z,30.67
2023-01-11T03:19:13.670Z,27.60
2023-01-11T03:21:59.264Z,29.75
2023-01-11T03:24:36.043Z,29.60
2023-01-11T03:27:05.834Z,32.92
2023-01-11T03:30:02.324Z,30.27
2023-01-11T03:32:47.546Z,29.48
2023-01-11T03:35:40.815Z,28.38
2023-01-11T03:38:15.805Z,28.30
2023-01-11T03:40:48.847Z,25.95
2023-01-11T03:43:19.096Z,29.75
2023-01-11T03:45:49.600Z,27.92
2023-01-11T03:48:31.117Z,28.88
2023-01-11T03:51:00.247Z,27.38
2023-01-11T03:53:30.167Z,27.30
2023-01-11T03:56:00.176Z,26.77
2023-01-11T03:58:27.905Z,25.00
2023-01-11T04:00:56.670Z,26.95
2023-01-11T04:03:26.907Z,26.10
2023-01-11T04:06:00.743Z,24.97
2023-01-11T04:08:46.020Z,23.23
2023-01-11T04:11:14.035Z,24.50
2023-01-11T04:13:41.180Z,24.30
2023-01-11T04:16:08.460Z,24.60
2023-01-11T04:18:35.497Z,24.02
2023-01-11T04:21:02.715Z,25.52
2023-01-11T04:23:29.692Z,26.02
2023-01-11T04:25:56.926Z,27.02
2023-01-11T04:28:23.823Z,26.25
2023-01-11T04:30:50.983Z,27.35
2023-01-11T04:33:19.629Z,28.70
2023-01-11T04:35:46.881Z,23.90
2023-01-11T04:38:13.810Z,26.42
2023-01-11T04:40:41.103Z,25.92
2023-01-11T04:43:08.120Z,23.85
2023-01-11T04:45:35.281Z,22.42
2023-01-11T04:48:02.283Z,20.55
2023-01-11T04:50:29.596Z,22.35
2023-01-11T04:52:58.202Z,18.80
2023-01-11T04:55:25.509Z,16.80
2023-01-11T04:57:52.478Z,17.30
2023-01-11T05:00:20.031Z,17.90
2023-01-11T05:02:46.978Z,18.15
2023-01-11T05:05:14.279Z,18.50
2023-01-11T05:07:41.306Z,17.33
2023-01-11T05:10:09.126Z,18.60
2023-01-11T05:12:36.025Z,18.20
2023-01-11T05:15:03.352Z,17.80
2023-01-11T05:17:30.209Z,18.55
2023-01-11T05:19:57.429Z,16.27
2023-01-11T05:22:24.384Z,16.75
2023-01-11T05:24:51.537Z,16.20
2023-01-11T05:27:18.434Z,16.88
2023-01-11T05:29:45.676Z,15.68
2023-01-11T05:32:13.191Z,16.50
2023-01-11T05:34:40.358Z,16.05
2023-01-11T05:37:07.227Z,15.43
2023-01-11T05:39:34.445Z,14.85
2023-01-11T05:42:01.392Z,14.40
2023-01-11T05:44:47.130Z,14.98
2023-01-11T05:47:14.037Z,14.55
2023-01-11T05:49:41.270Z,14.63
2023-01-11T05:52:08.173Z,14.45
2023-01-11T05:54:35.385Z,14.50
2023-01-11T05:57:02.579Z,13.65
2023-01-11T05:59:32.033Z,14.48
2023-01-11T06:01:59.332Z,14.65
2023-01-11T06:04:27.552Z,14.80
2023-01-11T06:06:54.643Z,15.98
2023-01-11T06:09:21.829Z,14.35
2023-01-11T06:11:50.552Z,15.43
2023-01-11T06:14:17.827Z,14.32
2023-01-11T06:16:44.748Z,14.52
2023-01-11T06:19:12.000Z,14.52
2023-01-11T06:21:39.034Z,13.35
2023-01-11T06:24:06.544Z,13.45
2023-01-11T06:26:33.423Z,13.75
2023-01-11T06:29:00.780Z,13.88
2023-01-11T06:31:27.762Z,16.20
2023-01-11T06:33:55.138Z,14.75
2023-01-11T06:36:22.105Z,14.05
2023-01-11T06:38:49.306Z,12.95
2023-01-11T06:41:16.239Z,14.40
2023-01-11T06:43:43.552Z,14.25
2023-01-11T06:46:15.669Z,13.07
2023-01-11T06:48:43.858Z,13.60
2023-01-11T06:51:12.069Z,12.25
2023-01-11T06:53:41.226Z,14.27
2023-01-11T06:56:11.189Z,13.70
2023-01-11T06:58:38.708Z,13.95
2023-01-11T07:01:06.285Z,14.35
2023-01-11T07:03:33.700Z,15.10
2023-01-11T07:06:01.690Z,13.63
2023-01-11T07:08:28.948Z,12.20
2023-01-11T07:10:56.204Z,13.88
2023-01-11T07:13:23.670Z,13.35
2023-01-11T07:15:51.800Z,13.23
2023-01-11T07:18:19.837Z,12.95
2023-01-11T07:20:47.547Z,12.88
2023-01-11T07:23:15.238Z,13.07
2023-01-11T07:25:42.138Z,12.40
2023-01-11T07:28:09.735Z,13.60
2023-01-11T07:30:55.426Z,13.27
2023-01-11T07:33:25.126Z,13.32
2023-01-11T07:35:52.356Z,12.50
2023-01-11T07:38:19.577Z,12.68
2023-01-11T07:40:46.627Z,13.85
2023-01-11T07:43:19.017Z,13.45
2023-01-11T07:45:49.433Z,13.40
2023-01-11T07:48:24.992Z,12.27
2023-01-11T07:50:53.232Z,11.95
2023-01-11T07:53:20.678Z,12.10
2023-01-11T07:55:47.811Z,11.57
2023-01-11T07:58:16.055Z,10.75
2023-01-11T08:00:43.581Z,12.30
2023-01-11T08:03:11.182Z,12.00
2023-01-11T08:05:38.563Z,12.13
2023-01-11T08:08:07.030Z,12.75
2023-01-11T08:10:34.707Z,11.60
2023-01-11T08:13:20.846Z,11.77
2023-01-11T08:15:47.792Z,11.25
2023-01-11T08:18:17.154Z,11.57
2023-01-11T08:20:44.095Z,13.18
2023-01-11T08:23:11.319Z,11.88
2023-01-11T08:25:38.324Z,11.98
2023-01-11T08:28:07.085Z,11.45
2023-01-11T08:30:34.888Z,11.73
2023-01-11T08:33:02.629Z,12.43
2023-01-11T08:35:30.888Z,9.63
2023-01-11T08:37:58.096Z,12.50
2023-01-11T08:40:25.743Z,12.10
2023-01-11T08:42:57.115Z,11.25
2023-01-11T08:45:25.156Z,11.77
2023-01-11T08:47:53.304Z,12.20
2023-01-11T08:50:22.207Z,10.95
2023-01-11T08:52:51.236Z,11.30
2023-01-11T08:55:21.571Z,10.63
2023-01-11T08:57:48.774Z,12.05
2023-01-11T09:00:16.108Z,11.48
2023-01-11T09:02:47.553Z,10.60
2023-01-11T09:05:16.850Z,11.40
2023-01-11T09:07:46.284Z,11.88
2023-01-11T09:10:13.464Z,10.52
2023-01-11T09:12:40.738Z,11.40
2023-01-11T09:15:08.253Z,11.05
2023-01-11T09:17:35.382Z,11.05
2023-01-11T09:20:02.330Z,12.77
2023-01-11T09:22:29.715Z,10.68
2023-01-11T09:24:59.125Z,12.07
2023-01-11T09:27:26.650Z,12.27
2023-01-11T09:29:53.625Z,12.65
2023-01-11T09:32:20.839Z,11.45
2023-01-11T09:34:49.680Z,11.77
2023-01-11T09:37:17.196Z,11.15
2023-01-11T09:39:44.797Z,11.02
2023-01-11T09:42:39.131Z,12.35
2023-01-11T09:45:14.615Z,13.73
2023-01-11T09:48:11.814Z,12.38
2023-01-11T09:50:48.645Z,12.63
2023-01-11T09:53:34.874Z,11.23
2023-01-11T09:56:05.480Z,11.57
2023-01-11T09:58:42.802Z,12.93
2023-01-11T10:01:17.663Z,13.05
2023-01-11T10:04:06.229Z,12.38
2023-01-11T10:06:36.256Z,13.20
2023-01-11T10:18:22.408Z,11.40
2023-01-11T10:19:04.255Z,13.13
2023-01-11T10:21:35.802Z,12.52
2023-01-11T10:24:08.644Z,12.65
2023-01-11T10:26:40.136Z,12.73
2023-01-11T10:29:59.682Z,13.25
2023-01-11T10:32:54.108Z,13.55
2023-01-11T10:35:45.944Z,11.98
2023-01-11T10:38:49.299Z,12.45
2023-01-11T10:41:49.207Z,12.35
2023-01-11T10:44:28.982Z,12.38
2023-01-11T10:46:58.033Z,13.93
2023-01-11T10:49:25.893Z,11.93
2023-01-11T10:51:58.962Z,14.27
2023-01-11T10:54:32.624Z,12.65
2023-01-11T10:57:18.171Z,12.15
2023-01-11T11:00:17.162Z,12.55
2023-01-11T11:02:47.159Z,13.20
2023-01-11T11:05:34.559Z,13.70
2023-01-11T11:08:27.685Z,13.52
2023-01-11T11:11:00.816Z,12.32
2023-01-11T11:13:47.535Z,12.07
2023-01-11T11:16:23.884Z,12.48
2023-01-11T11:18:58.500Z,11.55
2023-01-11T11:21:38.853Z,11.35
2023-01-11T11:24:14.031Z,11.55
2023-01-11T11:26:45.456Z,12.45
2023-01-11T11:29:21.621Z,11.88
2023-01-11T11:31:50.715Z,11.05
2023-01-11T11:34:20.996Z,11.40
2023-01-11T11:36:52.045Z,11.27
2023-01-11T11:39:30.575Z,12.20
2023-01-11T11:42:06.671Z,12.57
2023-01-11T11:44:34.189Z,11.18
2023-01-11T11:47:02.780Z,12.60
2023-01-11T11:49:31.884Z,10.05
2023-01-11T11:52:01.772Z,12.27
2023-01-11T11:54:31.436Z,11.00
2023-01-11T11:57:13.465Z,11.68
2023-01-11T12:02:24.729Z,10.70
2023-01-11T12:04:53.416Z,10.68
2023-01-11T12:07:24.315Z,10.65
2023-01-11T12:10:00.039Z,13.15
2023-01-11T12:12:29.553Z,10.15
2023-01-11T12:15:29.018Z,10.02
2023-01-11T12:18:22.921Z,10.82
2023-01-11T12:20:49.878Z,10.10
2023-01-11T12:23:24.424Z,10.10
2023-01-11T12:26:00.585Z,10.50
2023-01-11T12:28:49.847Z,10.27
2023-01-11T12:31:43.162Z,10.15
2023-01-11T12:34:37.426Z,11.88
2023-01-11T12:37:23.360Z,11.57
2023-01-11T12:40:19.773Z,8.98
2023-01-11T12:43:11.489Z,10.68
2023-01-11T12:46:00.542Z,11.02
2023-01-11T12:49:00.134Z,10.85
2023-01-11T12:51:52.506Z,10.73
2023-01-11T12:54:28.623Z,10.23
2023-01-11T12:57:04.885Z,10.48
2023-01-11T13:00:10.287Z,11.07
2023-01-11T13:03:02.646Z,10.90
2023-01-11T13:05:55.202Z,12.35
2023-01-11T13:08:41.692Z,11.00
2023-01-11T13:11:44.892Z,10.80
2023-01-11T13:14:27.269Z,10.30
2023-01-11T13:17:13.048Z,11.35
2023-01-11T13:20:17.981Z,10.63
2023-01-11T13:22:54.342Z,11.10
2023-01-11T13:25:28.044Z,10.15
2023-01-11T13:27:57.840Z,11.90
2023-01-11T13:30:26.461Z,12.95
2023-01-11T13:32:58.282Z,11.10
2023-01-11T13:35:36.866Z,11.10
2023-01-11T13:38:23.115Z,11.23
2023-01-11T13:40:55.428Z,11.73
2023-01-11T13:43:33.475Z,11.73
2023-01-11T13:46:17.981Z,12.52
2023-01-11T13:48:53.870Z,11.90
2023-01-11T13:51:31.542Z,12.82
2023-01-11T13:54:02.457Z,13.82
2023-01-11T13:56:39.992Z,13.48
2023-01-11T13:59:26.231Z,13.43
2023-01-11T14:02:13.158Z,13.40
2023-01-11T14:04:55.287Z,11.60
2023-01-11T14:07:48.568Z,11.68
2023-01-11T14:10:31.113Z,13.30
2023-01-11T14:13:10.034Z,12.20
2023-01-11T14:15:41.158Z,11.50
2023-01-11T14:18:45.173Z,12.05
2023-01-11T14:21:23.577Z,12.10
2023-01-11T14:23:55.261Z,12.25
2023-01-11T14:26:40.650Z,12.90
2023-01-11T14:29:30.734Z,12.65
2023-01-11T14:32:12.560Z,12.25
2023-01-11T14:35:11.929Z,12.98
2023-01-11T14:37:52.920Z,12.80
2023-01-11T14:40:29.961Z,12.40
2023-01-11T14:43:22.114Z,13.43
2023-01-11T14:45:58.103Z,12.70
2023-01-11T14:48:30.336Z,12.95
2023-01-11T14:51:20.874Z,12.98
2023-01-11T14:53:58.569Z,13.88
2023-01-11T14:56:44.270Z,14.35
2023-01-11T14:59:34.845Z,12.57
2023-01-11T15:02:05.537Z,12.77
2023-01-11T15:04:58.421Z,13.55
2023-01-11T15:07:38.740Z,13.00
2023-01-11T15:10:30.378Z,15.77
2023-01-11T15:12:58.499Z,14.80
2023-01-11T15:15:47.592Z,13.73
2023-01-11T15:18:22.614Z,14.10
2023-01-11T15:21:05.199Z,14.23
2023-01-11T15:23:36.671Z,15.35
2023-01-11T15:26:06.487Z,14.68
2023-01-11T15:28:50.500Z,15.00
2023-01-11T15:31:30.026Z,15.30
2023-01-11T15:34:18.711Z,15.98
2023-01-11T15:37:00.805Z,15.32
2023-01-11T15:39:40.334Z,15.63
2023-01-11T15:42:28.722Z,15.18
2023-01-11T15:45:16.516Z,15.32
2023-01-11T15:48:08.361Z,15.18
2023-01-11T15:51:03.246Z,15.35
2023-01-11T15:53:49.154Z,15.02
2023-01-11T15:56:25.508Z,13.27
2023-01-11T15:59:07.546Z,13.18
2023-01-11T16:02:11.687Z,12.88
2023-01-11T16:05:00.968Z,13.52
2023-01-11T16:07:50.597Z,14.82
2023-01-11T16:10:46.066Z,14.15
2023-01-11T16:13:19.836Z,12.98
2023-01-11T16:16:20.757Z,14.43
2023-01-11T16:18:55.334Z,14.93
2023-01-11T16:21:41.963Z,13.13
2023-01-11T16:24:15.102Z,14.98
2023-01-11T16:26:42.498Z,13.45
2023-01-11T16:29:18.781Z,14.55
2023-01-11T16:31:59.044Z,13.85
2023-01-11T16:34:29.152Z,15.27
2023-01-11T16:36:57.786Z,14.10
2023-01-11T16:39:29.506Z,14.13
2023-01-11T16:42:05.689Z,13.85
2023-01-11T16:44:51.186Z,14.88
2023-01-11T16:47:20.527Z,14.82
2023-01-11T16:49:49.905Z,14.20
2023-01-11T16:52:37.090Z,15.30
2023-01-11T16:55:14.312Z,15.10
2023-01-11T16:57:46.231Z,15.48
2023-01-11T17:00:28.892Z,16.35
2023-01-11T17:03:18.069Z,14.70
2023-01-11T17:06:12.974Z,14.85
2023-01-11T17:08:45.050Z,13.52
2023-01-11T17:11:24.434Z,13.48
2023-01-11T17:13:54.777Z,13.77
2023-01-11T17:16:25.382Z,14.18
2023-01-11T17:18:54.577Z,12.88
2023-01-11T17:21:26.927Z,13.82
2023-01-11T17:23:59.174Z,14.30
2023-01-11T17:26:30.697Z,13.80
2023-01-11T17:28:59.717Z,14.95
2023-01-11T17:31:32.307Z,14.00
2023-01-11T17:34:23.869Z,13.48
2023-01-11T17:36:51.293Z,14.32
2023-01-11T17:39:43.046Z,14.38
2023-01-11T17:42:31.730Z,11.88
2023-01-11T17:45:14.052Z,14.50
2023-01-11T17:47:48.643Z,15.02
2023-01-11T17:50:29.907Z,15.10
2023-01-11T17:53:04.169Z,14.65
2023-01-11T17:55:31.609Z,14.65
2023-01-11T17:58:13.797Z,12.95
2023-01-11T18:00:43.855Z,14.77
2023-01-11T18:03:15.776Z,14.70
2023-01-11T18:05:43.792Z,14.15
2023-01-11T18:08:20.455Z,14.25
2023-01-11T18:10:55.396Z,14.43
2023-01-11T18:13:34.022Z,13.63
2023-01-11T18:16:02.881Z,12.52
2023-01-11T18:18:53.935Z,13.10
2023-01-11T18:21:50.989Z,14.68
2023-01-11T18:24:31.751Z,14.13
2023-01-11T18:27:26.324Z,13.32
2023-01-11T18:29:55.099Z,13.23
2023-01-11T18:32:22.571Z,14.50
2023-01-11T18:34:53.291Z,12.88
2023-01-11T18:37:21.040Z,13.52
2023-01-11T18:39:49.563Z,14.15
2023-01-11T18:42:20.088Z,13.40
2023-01-11T18:44:49.425Z,13.75
2023-01-11T18:47:22.870Z,13.98
2023-01-11T18:49:51.502Z,14.07
2023-01-11T18:52:20.425Z,13.77
2023-01-11T18:54:47.883Z,14.48
2023-01-11T18:57:15.447Z,13.98
2023-01-11T18:59:42.868Z,15.38
2023-01-11T19:02:17.750Z,14.63
2023-01-11T19:04:45.475Z,13.50
2023-01-11T19:07:13.951Z,14.30
2023-01-11T19:09:41.157Z,13.00
2023-01-11T19:12:08.534Z,12.63
2023-01-11T19:14:35.580Z,11.65
2023-01-11T19:17:04.670Z,11.88
2023-01-11T19:19:31.681Z,13.05
2023-01-11T19:21:59.049Z,11.93
2023-01-11T19:24:25.964Z,12.30
2023-01-11T19:26:53.385Z,11.10
2023-01-11T19:29:22.775Z,12.82
2023-01-11T19:31:52.275Z,11.88
2023-01-11T19:34:19.736Z,12.55
2023-01-11T19:36:48.135Z,12.27
2023-01-11T19:39:15.180Z,13.20
2023-01-11T19:41:54.808Z,11.68
2023-01-11T19:44:22.485Z,12.38
2023-01-11T19:46:57.047Z,12.40
2023-01-11T19:49:36.653Z,12.35
2023-01-11T19:52:04.191Z,13.45
2023-01-11T19:54:31.145Z,12.35
2023-01-11T19:56:58.528Z,13.88
2023-01-11T19:59:25.709Z,13.95
2023-01-11T20:01:52.872Z,13.45
2023-01-11T20:04:21.118Z,13.00
2023-01-11T20:06:52.052Z,12.65
2023-01-11T20:09:20.253Z,13.38
2023-01-11T20:11:53.232Z,13.57
2023-01-11T20:14:20.340Z,15.27
2023-01-11T20:16:47.559Z,13.77
2023-01-11T20:19:15.108Z,15.02
2023-01-11T20:21:42.553Z,15.57
2023-01-11T20:24:13.947Z,15.18
2023-01-11T20:26:42.344Z,14.27
2023-01-11T20:29:09.507Z,15.95
2023-01-11T20:31:36.783Z,15.68
2023-01-11T20:34:10.033Z,16.42
2023-01-11T20:36:37.856Z,16.20
2023-01-11T20:39:05.409Z,17.33
2023-01-11T20:41:51.068Z,16.67
2023-01-11T20:44:24.399Z,18.13
2023-01-11T20:46:53.716Z,19.27
2023-01-11T20:49:23.468Z,16.25
2023-01-11T20:51:50.864Z,16.63
2023-01-11T20:54:19.022Z,18.90
2023-01-11T20:56:46.967Z,17.05
2023-01-11T20:59:20.375Z,17.88
2023-01-11T21:01:49.501Z,17.98
2023-01-11T21:04:17.917Z,18.88
2023-01-11T21:06:48.120Z,19.85
2023-01-11T21:09:17.464Z,18.08
2023-01-11T21:11:52.394Z,18.40
2023-01-11T21:14:20.364Z,19.75
2023-01-11T21:16:48.011Z,18.15
2023-01-11T21:19:16.021Z,19.02
2023-01-11T21:21:43.379Z,19.50
2023-01-11T21:24:14.060Z,19.02
2023-01-11T21:26:42.523Z,20.10
2023-01-11T21:29:11.670Z,18.95
2023-01-11T21:31:39.755Z,20.02
2023-01-11T21:34:07.340Z,18.60
2023-01-11T21:36:34.791Z,20.02
2023-01-11T21:39:03.376Z,20.67
2023-01-11T21:41:51.041Z,19.08
2023-01-11T21:44:19.930Z,19.73
2023-01-11T21:46:47.746Z,18.23
2023-01-11T21:49:15.709Z,19.73
2023-01-11T21:51:43.644Z,19.60
2023-01-11T21:54:13.515Z,19.55
2023-01-11T21:56:43.990Z,18.90
2023-01-11T21:59:10.944Z,18.75
2023-01-11T22:01:39.722Z,18.08
2023-01-11T22:04:08.435Z,18.95
2023-01-11T22:06:40.176Z,18.92
2023-01-11T22:09:11.947Z,18.45
2023-01-11T22:11:39.884Z,19.38
2023-01-11T22:14:08.656Z,18.30
2023-01-11T22:16:37.352Z,17.80
2023-01-11T22:19:07.797Z,19.15
2023-01-11T22:21:36.721Z,18.98
2023-01-11T22:24:04.990Z,19.30
2023-01-11T22:26:38.593Z,17.50
2023-01-11T22:29:12.577Z,18.67
2023-01-11T22:31:52.506Z,17.15
2023-01-11T22:34:20.277Z,17.45
2023-01-11T22:36:48.079Z,17.35
2023-01-11T22:39:16.447Z,17.77
2023-01-11T22:41:46.030Z,16.23
2023-01-11T22:44:14.012Z,18.33
2023-01-11T22:46:42.146Z,17.33
2023-01-11T22:49:10.042Z,17.95
2023-01-11T22:51:37.478Z,16.20
2023-01-11T22:54:04.795Z,17.38
2023-01-11T22:56:32.745Z,18.27
2023-01-11T22:59:00.146Z,17.55
2023-01-11T23:01:33.344Z,19.48
2023-01-11T23:04:01.394Z,18.10
2023-01-11T23:06:29.988Z,17.88
2023-01-11T23:08:57.493Z,18.65
2023-01-11T23:11:48.912Z,18.10
2023-01-11T23:14:17.795Z,18.08
2023-01-11T23:16:46.880Z,18.08
2023-01-11T23:19:17.202Z,17.95
2023-01-11T23:21:46.238Z,17.88
2023-01-11T23:24:15.398Z,19.02
2023-01-11T23:26:43.614Z,19.13
2023-01-11T23:29:10.688Z,18.45
2023-01-11T23:31:38.147Z,19.73
2023-01-11T23:34:08.040Z,20.45
2023-01-11T23:36:37.842Z,18.58
2023-01-11T23:39:06.925Z,18.73
2023-01-11T23:41:52.807Z,19.80
2023-01-11T23:44:19.874Z,18.75
2023-01-11T23:47:05.633Z,20.10
2023-01-11T23:49:32.852Z,19.23
2023-01-11T23:52:00.840Z,19.65
2023-01-11T23:54:30.202Z,20.05
2023-01-11T23:56:58.832Z,19.17
2023-01-11T23:59:26.113Z,19.67
